Météo des aéroports (METAR) proches de Ticheville

 

LFRG - St Gatien, France
Distance from station: N 52km
Mise à jour: 25/06/2019 01:00

 Wind from NO
Vent: NO 7 km/h
Visibility: 5 km
2019/06/24 23:00 LFRG 242300Z AUTO 31004KT 240V030 4900 2100 +TSRA BR FEW004/// BKN034/// BKN040/// ///CB 15/14 Q1018
LFRK - Caen/Carpiquet(A, France
Distance from station: ONO 60km
Mise à jour: 25/06/2019 01:00
Light thunderstorm, Pluie, Thunderstorm
Light thunderstorm, Pluie, Thunderstorm
 Wind from NNO
Vent: NNO 9 km/h
Température: 15°C
Point de rosée: 15°C
Humidité: 100%
Baromètre: 1017 hPa
Résumé: Light thunderstorm, Pluie
Clouds: Thunderstorm
Visibility: 7 km
Cloud details: nuageux 213 m
nuageux 518 m
couvert 3353 m
2019/06/24 23:00 LFRK 242300Z AUTO 33005KT 290V360 7000 -TSRA BKN007/// BKN017/// OVC110/// ///CB 15/15 Q1017
 
LFOH - Le Havre/Octevil, France
Distance from station: NNO 69km
Mise à jour: 25/06/2019 01:00
pluie légère, Mist, Nearby thunderstorm, Thunderstorm
pluie légère, Mist, Nearby thunderstorm, Thunderstorm
 Wind from NNE
Vent: NNE 13 km/h
Température: 15°C
Point de rosée: 15°C
Humidité: 100%
Baromètre: 1017 hPa
Résumé: pluie légère, Mist, Nearby thunderstorm
Clouds: Thunderstorm
Visibility: 5 km
Cloud details: partiellement nuageux 1158 m
nuageux 1524 m
nuageux 1951 m
2019/06/24 23:00 LFOH 242300Z AUTO 02007KT 5000 -RA BR VCTS SCT038/// BKN050/// BKN064/// ///CB 15/15 Q1017
LFOE - Evreux/Fauville, France
Distance from station: E 70km
Mise à jour: 25/06/2019 01:00
clair
clair
 Wind from N
Vent: N 6 km/h
Température: 18°C
Point de rosée: 15°C
Humidité: 83%
Baromètre: 1015 hPa
Résumé: clair
Visibility: greater than 10 km
2019/06/24 23:00 LFOE 242300Z AUTO 35003KT 270V040 CAVOK 18/15 Q1015 NOSIG
 
LFOP - Rouen/Boos (aut), France
Distance from station: NE 83km
Mise à jour: 25/06/2019 01:00
clair
clair
 Wind from NNE
Vent: NNE 20 km/h
Température: 18°C
Point de rosée: 15°C
Humidité: 83%
Baromètre: 1015 hPa
Résumé: clair
Visibility: greater than 10 km
2019/06/24 23:00 LFOP 242300Z AUTO 02011KT CAVOK 18/15 Q1015
LFRM - Le Mans/Arnage(A, France
Distance from station: S 107km
Mise à jour: 25/06/2019 01:00
clair
clair
 Wind from N
Vent: N 19 km/h
Température: 19°C
Point de rosée: 16°C
Humidité: 83%
Baromètre: 1014 hPa
Résumé: clair
Visibility: greater than 10 km
2019/06/24 23:00 LFRM 242300Z AUTO 36010KT CAVOK 19/16 Q1014